Weather Models
Both GFS & NAM
00z 06z 12z 18z
24hr Precip
00z 06z 12z 18z
36hr Simulated radar
00z 06z 12z 18z
SKEWT Soundings
00z 12z
Current Conditions (Updated 2:10pm on 10/15/18)
Temperature
 64°
0.79
64°  
56°  
0
10
20
30
40
50
60
70
80
90
100
Dew Point
62°
62°  
47°  
-20
-10
0
10
20
30
40
50
60
70
80
Wind Chill
64°
64°  
56°  
-20
-10
0
10
20
30
40
50
60
70
80
Wind Chill
Humidity
91%
94% 
70% 
0
10
20
30
40
50
60
70
80
90
100
Barometer
30.01
   Steady
30.25  
30.01  
28.00
28.30
28.60
28.90
29.20
29.50
29.80
30.10
30.40
30.70
31.00
Temperature
Dew Point
Humidity
Pressure
Wind
9mph
WSW
Daily Rain
.00
.05
.10
.15
.20
.25
.30
.35
.40
.45
.50
Rain Today
 0.10" 
Month Rain
0.00
0.50
1.00
1.50
2.00
2.50
3.00
3.50
4.00
4.50
5.00
Month Rain
 4.18" 
Year Rain
0.00
5.00
10.00
15.00
20.00
25.00
30.00
35.00
40.00
45.00
50.00
Year Rain
 46.01" 
Sun & Moon Data
Sunrise 7:12am
Sunset 6:22pm
Moonrise 1:28pm
Moonset 11:15pm
Moon % 40%
Other Rain Data
Past Hour 0.00 Past 24 Hours 0.10
Past 3 Hours 0.00 Past 7 Days 2.17
Past 6 Hours 0.08
Cloud Height
670


Current Front Map
Current Satellite map
7 Day Forecast
NWS Forecast for Philadelphia PA
National Weather Service Forecast for: Philadelphia PA
Issued by: National Weather Service Philadelphia, PA
Updated: 12:39 pm EDT Oct 15, 2018

Philadelphia
 
This
Afternoon
This Afternoon: A slight chance of showers.  Cloudy, with a high near 70. Southwest wind around 14 mph.  Chance of precipitation is 20%.
Slight Chance
Showers
Tonight

Tonight: Showers and thunderstorms before 1am, then a slight chance of showers between 1am and 2am.  Low around 49. Southwest wind 9 to 17 mph becoming northwest after midnight.  Chance of precipitation is 90%. New precipitation amounts between a quarter and half of an inch possible.
Showers then
Chance
Showers
Tuesday

Tuesday: Sunny, with a high near 57. West wind around 9 mph.
Sunny

Tuesday
Night
Tuesday Night: Partly cloudy, with a low around 46. West wind 3 to 5 mph.
Partly Cloudy

Wednesday

Wednesday: Mostly sunny, with a high near 60. West wind 7 to 16 mph, with gusts as high as 28 mph.
Mostly Sunny

Wednesday
Night
Wednesday Night: Mostly clear, with a low around 39.
Mostly Clear

Thursday

Thursday: Sunny, with a high near 51.
Sunny

Thursday
Night
Thursday Night: Mostly clear, with a low around 38.
Mostly Clear

Friday

Friday: Sunny, with a high near 58.
Sunny

Hi 70 °F Lo 49 °F Hi 57 °F Lo 46 °F Hi 60 °F Lo 39 °F Hi 51 °F Lo 38 °F Hi 58 °F

 

This Afternoon
 
A slight chance of showers. Cloudy, with a high near 70. Southwest wind around 14 mph. Chance of precipitation is 20%.
Tonight
 
Showers and thunderstorms before 1am, then a slight chance of showers between 1am and 2am. Low around 49. Southwest wind 9 to 17 mph becoming northwest after midnight. Chance of precipitation is 90%. New precipitation amounts between a quarter and half of an inch possible.
Tuesday
 
Sunny, with a high near 57. West wind around 9 mph.
Tuesday Night
 
Partly cloudy, with a low around 46. West wind 3 to 5 mph.
Wednesday
 
Mostly sunny, with a high near 60. West wind 7 to 16 mph, with gusts as high as 28 mph.
Wednesday Night
 
Mostly clear, with a low around 39.
Thursday
 
Sunny, with a high near 51.
Thursday Night
 
Mostly clear, with a low around 38.
Friday
 
Sunny, with a high near 58.
Friday Night
 
A chance of showers. Mostly cloudy, with a low around 50. Chance of precipitation is 40%.
Saturday
 
A chance of showers. Mostly cloudy, with a high near 61. Chance of precipitation is 30%.
Saturday Night
 
Mostly cloudy, with a low around 44.
Sunday
 
Sunny, with a high near 53.

 

Forecast from NOAA-NWS for Philadelphia PA.

Area Weather Current Conditions
Nearby METAR Reports

KPHL - Philadelphia, Pennsylvania
Updated: Mon, 15-Oct-2018 1:54pm EDT
Overcast
Overcast
 Wind from SSW
Wind: SSW 16 mph , 26 km/h
Temperature: 64°F , 18°C
Dew Point: 63°F , 17°C
Humidity: 94%
Barometer: 30.00 inHg , 1015.9 hPa
Clouds: Overcast
Visibility: 10 miles , 16 km
Cloud details: Overcast 900 ft
2018/10/15 17:54 KPHL 151754Z 21014KT 10SM OVC009 18/17 A3000 RMK AO2 SLP158 60009 T01830167 10183 20150 58030 $
KMPO - Mt. Pocono, Pennsylvania
Updated: Mon, 15-Oct-2018 1:53pm EDT
Fog, Overcast
Fog, Overcast
 Wind from S
Wind: S 9 mph , 15 km/h
Temperature: 54°F , 12°C
Dew Point: 54°F , 12°C
Humidity: 100%
Barometer: 29.97 inHg , 1014.9 hPa
Summary: Fog
Clouds: Overcast
Visibility: 1/4 mile , 2 km
Cloud details: Overcast 100 ft
2018/10/15 17:53 KMPO 151753Z AUTO 19008KT 1/4SM FG VV001 12/12 A2997 RMK AO2 SLP153 60002 T01220122 10122 20094 57022
 
KACY - Atlantic City, New Jersey
Updated: Mon, 15-Oct-2018 1:54pm EDT
Overcast
Overcast
 Wind from SW
Wind: SW 16 mph , 26 km/h, Gust: 25 mph , 41 km/h
Temperature: 72°F , 22°C
Dew Point: 66°F , 19°C
Humidity: 83%
Barometer: 30.02 inHg , 1016.6 hPa
Clouds: Overcast
Visibility: 10 miles , 16 km
Cloud details: Overcast 1600 ft
2018/10/15 17:54 KACY 151754Z 23014G22KT 10SM OVC016 22/19 A3002 RMK AO2 SLP165 60011 T02170189 10217 20172 58027 $
KMIV - Millville, New Jersey
Updated: Mon, 15-Oct-2018 1:54pm EDT
Mostly Cloudy
Mostly Cloudy
 Wind from SSW
Wind: SSW 10 mph , 17 km/h
Temperature: 70°F , 21°C
Dew Point: 64°F , 18°C
Humidity: 83%
Barometer: 30.03 inHg , 1016.9 hPa
Clouds: Mostly Cloudy
Visibility: 10 miles , 16 km
Cloud details: Mostly Cloudy 1400 ft
2018/10/15 17:54 KMIV 151754Z AUTO 21009KT 190V250 10SM BKN014 21/18 A3003 RMK AO2 SLP167 60021 T02060183 10206 20156 58028
 
KWWD - Wildwood, New Jersey
Updated: Mon, 15-Oct-2018 1:55pm EDT
Few Clouds
Few Clouds
 Wind from SW
Wind: SW 15 mph , 24 km/h, Gust: 25 mph , 41 km/h
Temperature: 73°F , 23°C
Dew Point: 66°F , 19°C
Humidity: 78%
Barometer: 30.04 inHg , 1017.3 hPa
Clouds: Few Clouds
Visibility: 10 miles , 16 km
Cloud details: Few Clouds 1300 ft
2018/10/15 17:55 KWWD 151755Z AUTO 23013G22KT 10SM FEW013 23/19 A3004 RMK AO2 SLP174 60006 T02280194 10228 20172 56027
KDOV - Dover Afb, Delaware
Updated: Mon, 15-Oct-2018 1:56pm EDT
Partly Cloudy
Partly Cloudy
 Wind from SSW
Wind: SSW 15 mph , 24 km/h
Temperature: 72°F , 22°C
Dew Point: 64°F , 18°C
Humidity: 78%
Barometer: 30.01 inHg , 1016.3 hPa
Clouds: Partly Cloudy
Visibility: 10 miles , 16 km
Cloud details: Partly Cloudy 20000 ft
2018/10/15 17:56 KDOV 151756Z AUTO 21013KT 10SM SCT200 22/18 A3001 RMK AO2 PK WND 21027/53 SLP165 60005 T02240181 10224 20152 57030 $
Severe Weather Map
Recent Forum Post
[Philadelphia] 2017 -2018 Winter snow forecast by JC December 06, 2017, 02:00:35 AM
[Philadelphia] Request for Philly Snow Data by JC February 14, 2017, 08:42:21 PM
[Philadelphia] 2016 -2017 Winter snow forecast by JC December 01, 2016, 04:56:31 AM
[Philadelphia] Winter forecast 2016-2017 by xyonist November 30, 2016, 01:14:08 PM
[Philadelphia] 102.7 last Saturday by JC August 20, 2016, 03:26:22 AM
[Philadelphia] 2015 -2016 Winter snow forecast by JC April 19, 2016, 09:42:40 AM
[Philadelphia] Latest Models on Weekend Storm (Photos) by JC January 23, 2016, 12:01:03 PM
[Philadelphia] Possible large snow storm for end of week ? by JC January 21, 2016, 09:17:47 AM